sensor_id;sensor_type;location;lat;lon;timestamp;P1;durP1;ratioP1;P2;durP2;ratioP2
13279;SDS011;6708;49.814;8.652;2022-09-03T00:00:34;0.50;;;0.50;;
13279;SDS011;6708;49.814;8.652;2022-09-03T00:03:07;0.50;;;0.50;;
13279;SDS011;6708;49.814;8.652;2022-09-03T00:05:40;1.97;;;0.53;;
13279;SDS011;6708;49.814;8.652;2022-09-03T00:08:13;0.30;;;0.30;;
13279;SDS011;6708;49.814;8.652;2022-09-03T00:10:48;0.53;;;0.53;;
13279;SDS011;6708;49.814;8.652;2022-09-03T00:13:21;2.07;;;0.70;;
13279;SDS011;6708;49.814;8.652;2022-09-03T00:15:53;0.50;;;0.50;;
13279;SDS011;6708;49.814;8.652;2022-09-03T00:18:24;0.53;;;0.53;;
13279;SDS011;6708;49.814;8.652;2022-09-03T00:20:56;0.40;;;0.40;;
13279;SDS011;6708;49.814;8.652;2022-09-03T00:23:32;2.10;;;0.53;;
13279;SDS011;6708;49.814;8.652;2022-09-03T00:26:04;0.70;;;0.70;;
13279;SDS011;6708;49.814;8.652;2022-09-03T00:28:43;0.87;;;0.80;;
13279;SDS011;6708;49.814;8.652;2022-09-03T00:31:17;0.57;;;0.57;;
13279;SDS011;6708;49.814;8.652;2022-09-03T00:33:51;0.50;;;0.50;;
13279;SDS011;6708;49.814;8.652;2022-09-03T00:36:24;0.60;;;0.60;;
13279;SDS011;6708;49.814;8.652;2022-09-03T00:38:57;1.97;;;0.50;;
13279;SDS011;6708;49.814;8.652;2022-09-03T00:41:28;0.67;;;0.63;;
13279;SDS011;6708;49.814;8.652;2022-09-03T00:44:06;0.97;;;0.50;;
13279;SDS011;6708;49.814;8.652;2022-09-03T00:47:03;0.60;;;0.60;;
13279;SDS011;6708;49.814;8.652;2022-09-03T00:49:39;0.50;;;0.47;;
13279;SDS011;6708;49.814;8.652;2022-09-03T00:52:15;0.30;;;0.30;;
13279;SDS011;6708;49.814;8.652;2022-09-03T00:54:48;0.60;;;0.60;;
13279;SDS011;6708;49.814;8.652;2022-09-03T00:57:28;0.50;;;0.50;;
13279;SDS011;6708;49.814;8.652;2022-09-03T01:00:04;1.30;;;0.70;;
13279;SDS011;6708;49.814;8.652;2022-09-03T01:02:39;0.50;;;0.50;;
13279;SDS011;6708;49.814;8.652;2022-09-03T01:05:19;0.40;;;0.40;;
13279;SDS011;6708;49.814;8.652;2022-09-03T01:07:59;0.43;;;0.43;;
13279;SDS011;6708;49.814;8.652;2022-09-03T01:10:34;0.50;;;0.50;;
13279;SDS011;6708;49.814;8.652;2022-09-03T01:13:11;1.50;;;0.50;;
13279;SDS011;6708;49.814;8.652;2022-09-03T01:15:43;0.40;;;0.40;;
13279;SDS011;6708;49.814;8.652;2022-09-03T01:18:20;1.07;;;0.47;;
13279;SDS011;6708;49.814;8.652;2022-09-03T01:20:54;0.60;;;0.60;;
13279;SDS011;6708;49.814;8.652;2022-09-03T01:23:45;0.40;;;0.40;;
13279;SDS011;6708;49.814;8.652;2022-09-03T01:26:27;0.53;;;0.53;;
13279;SDS011;6708;49.814;8.652;2022-09-03T01:29:05;1.07;;;0.60;;
13279;SDS011;6708;49.814;8.652;2022-09-03T01:31:40;0.77;;;0.60;;
13279;SDS011;6708;49.814;8.652;2022-09-03T01:34:16;1.60;;;0.70;;
13279;SDS011;6708;49.814;8.652;2022-09-03T01:36:51;0.53;;;0.53;;
13279;SDS011;6708;49.814;8.652;2022-09-03T01:39:26;0.57;;;0.57;;
13279;SDS011;6708;49.814;8.652;2022-09-03T01:41:59;0.50;;;0.40;;
13279;SDS011;6708;49.814;8.652;2022-09-03T01:44:56;0.70;;;0.50;;
13279;SDS011;6708;49.814;8.652;2022-09-03T01:47:32;0.47;;;0.47;;
13279;SDS011;6708;49.814;8.652;2022-09-03T01:50:19;0.63;;;0.60;;
13279;SDS011;6708;49.814;8.652;2022-09-03T01:53:00;0.57;;;0.57;;
13279;SDS011;6708;49.814;8.652;2022-09-03T01:55:35;0.60;;;0.60;;
13279;SDS011;6708;49.814;8.652;2022-09-03T01:58:13;0.73;;;0.73;;
13279;SDS011;6708;49.814;8.652;2022-09-03T02:00:47;1.00;;;0.80;;
13279;SDS011;6708;49.814;8.652;2022-09-03T02:03:21;0.73;;;0.70;;
13279;SDS011;6708;49.814;8.652;2022-09-03T02:05:51;0.63;;;0.63;;
13279;SDS011;6708;49.814;8.652;2022-09-03T02:08:19;0.63;;;0.40;;
13279;SDS011;6708;49.814;8.652;2022-09-03T02:10:49;0.30;;;0.30;;
13279;SDS011;6708;49.814;8.652;2022-09-03T02:13:21;0.70;;;0.70;;
13279;SDS011;6708;49.814;8.652;2022-09-03T02:15:55;0.40;;;0.40;;
13279;SDS011;6708;49.814;8.652;2022-09-03T02:18:27;0.60;;;0.60;;
13279;SDS011;6708;49.814;8.652;2022-09-03T02:20:58;0.53;;;0.53;;
13279;SDS011;6708;49.814;8.652;2022-09-03T02:23:26;0.67;;;0.67;;
13279;SDS011;6708;49.814;8.652;2022-09-03T02:25:56;0.67;;;0.67;;
13279;SDS011;6708;49.814;8.652;2022-09-03T02:28:27;0.40;;;0.40;;
13279;SDS011;6708;49.814;8.652;2022-09-03T02:30:59;0.80;;;0.80;;
13279;SDS011;6708;49.814;8.652;2022-09-03T02:33:28;2.00;;;0.70;;
13279;SDS011;6708;49.814;8.652;2022-09-03T02:35:56;0.43;;;0.40;;
13279;SDS011;6708;49.814;8.652;2022-09-03T02:38:25;0.60;;;0.60;;
13279;SDS011;6708;49.814;8.652;2022-09-03T02:40:54;0.70;;;0.60;;
13279;SDS011;6708;49.814;8.652;2022-09-03T02:43:25;1.90;;;0.67;;
13279;SDS011;6708;49.814;8.652;2022-09-03T02:46:00;0.70;;;0.70;;
13279;SDS011;6708;49.814;8.652;2022-09-03T02:48:30;0.53;;;0.53;;
13279;SDS011;6708;49.814;8.652;2022-09-03T02:50:59;0.77;;;0.73;;
13279;SDS011;6708;49.814;8.652;2022-09-03T02:53:27;0.80;;;0.80;;
13279;SDS011;6708;49.814;8.652;2022-09-03T02:55:59;0.33;;;0.33;;
13279;SDS011;6708;49.814;8.652;2022-09-03T02:58:28;0.57;;;0.57;;
13279;SDS011;6708;49.814;8.652;2022-09-03T03:01:00;0.60;;;0.57;;
13279;SDS011;6708;49.814;8.652;2022-09-03T03:03:29;0.60;;;0.60;;
13279;SDS011;6708;49.814;8.652;2022-09-03T03:05:58;1.17;;;0.70;;
13279;SDS011;6708;49.814;8.652;2022-09-03T03:08:27;0.60;;;0.60;;
13279;SDS011;6708;49.814;8.652;2022-09-03T03:10:58;0.60;;;0.40;;
13279;SDS011;6708;49.814;8.652;2022-09-03T03:13:27;0.50;;;0.50;;
13279;SDS011;6708;49.814;8.652;2022-09-03T03:15:56;0.47;;;0.47;;
13279;SDS011;6708;49.814;8.652;2022-09-03T03:18:27;0.73;;;0.73;;
13279;SDS011;6708;49.814;8.652;2022-09-03T03:20:56;0.87;;;0.87;;
13279;SDS011;6708;49.814;8.652;2022-09-03T03:23:24;1.93;;;0.70;;
13279;SDS011;6708;49.814;8.652;2022-09-03T03:25:53;0.50;;;0.50;;
13279;SDS011;6708;49.814;8.652;2022-09-03T03:28:28;0.77;;;0.77;;
13279;SDS011;6708;49.814;8.652;2022-09-03T03:30:58;0.50;;;0.50;;
13279;SDS011;6708;49.814;8.652;2022-09-03T03:33:29;0.57;;;0.57;;
13279;SDS011;6708;49.814;8.652;2022-09-03T03:35:58;1.10;;;0.57;;
13279;SDS011;6708;49.814;8.652;2022-09-03T03:38:27;0.80;;;0.80;;
13279;SDS011;6708;49.814;8.652;2022-09-03T03:40:56;1.17;;;0.50;;
13279;SDS011;6708;49.814;8.652;2022-09-03T03:43:24;0.50;;;0.50;;
13279;SDS011;6708;49.814;8.652;2022-09-03T03:45:56;0.50;;;0.50;;
13279;SDS011;6708;49.814;8.652;2022-09-03T03:48:25;1.40;;;0.97;;
13279;SDS011;6708;49.814;8.652;2022-09-03T03:50:58;0.90;;;0.90;;
13279;SDS011;6708;49.814;8.652;2022-09-03T03:53:29;0.80;;;0.77;;
13279;SDS011;6708;49.814;8.652;2022-09-03T03:55:58;1.80;;;0.60;;
13279;SDS011;6708;49.814;8.652;2022-09-03T03:58:28;0.63;;;0.63;;
13279;SDS011;6708;49.814;8.652;2022-09-03T04:01:03;0.70;;;0.70;;
13279;SDS011;6708;49.814;8.652;2022-09-03T04:03:31;0.60;;;0.60;;
13279;SDS011;6708;49.814;8.652;2022-09-03T04:06:03;0.70;;;0.70;;
13279;SDS011;6708;49.814;8.652;2022-09-03T04:08:33;0.50;;;0.50;;
13279;SDS011;6708;49.814;8.652;2022-09-03T04:11:03;0.60;;;0.60;;
13279;SDS011;6708;49.814;8.652;2022-09-03T04:13:33;0.40;;;0.40;;
13279;SDS011;6708;49.814;8.652;2022-09-03T04:16:03;0.73;;;0.70;;
13279;SDS011;6708;49.814;8.652;2022-09-03T04:18:32;0.50;;;0.50;;
13279;SDS011;6708;49.814;8.652;2022-09-03T04:21:05;0.47;;;0.47;;
13279;SDS011;6708;49.814;8.652;2022-09-03T04:23:35;0.40;;;0.40;;
13279;SDS011;6708;49.814;8.652;2022-09-03T04:26:05;0.53;;;0.53;;
13279;SDS011;6708;49.814;8.652;2022-09-03T04:28:34;0.43;;;0.43;;
13279;SDS011;6708;49.814;8.652;2022-09-03T04:31:04;0.60;;;0.60;;
13279;SDS011;6708;49.814;8.652;2022-09-03T04:33:33;0.70;;;0.63;;
13279;SDS011;6708;49.814;8.652;2022-09-03T04:36:06;0.60;;;0.60;;
13279;SDS011;6708;49.814;8.652;2022-09-03T04:38:36;4.07;;;0.80;;
13279;SDS011;6708;49.814;8.652;2022-09-03T04:41:05;0.50;;;0.50;;
13279;SDS011;6708;49.814;8.652;2022-09-03T04:43:34;0.47;;;0.47;;
13279;SDS011;6708;49.814;8.652;2022-09-03T04:46:04;0.60;;;0.60;;
13279;SDS011;6708;49.814;8.652;2022-09-03T04:48:34;0.53;;;0.53;;
13279;SDS011;6708;49.814;8.652;2022-09-03T04:51:06;0.83;;;0.83;;
13279;SDS011;6708;49.814;8.652;2022-09-03T04:53:37;0.50;;;0.50;;
13279;SDS011;6708;49.814;8.652;2022-09-03T04:56:11;0.53;;;0.53;;
13279;SDS011;6708;49.814;8.652;2022-09-03T04:58:39;0.40;;;0.40;;
13279;SDS011;6708;49.814;8.652;2022-09-03T05:01:08;1.27;;;0.50;;
13279;SDS011;6708;49.814;8.652;2022-09-03T05:03:37;0.77;;;0.77;;
13279;SDS011;6708;49.814;8.652;2022-09-03T05:06:08;0.40;;;0.40;;
13279;SDS011;6708;49.814;8.652;2022-09-03T05:08:37;0.67;;;0.67;;
13279;SDS011;6708;49.814;8.652;2022-09-03T05:11:06;0.63;;;0.63;;
13279;SDS011;6708;49.814;8.652;2022-09-03T05:13:35;0.50;;;0.50;;
13279;SDS011;6708;49.814;8.652;2022-09-03T05:16:05;0.60;;;0.60;;
13279;SDS011;6708;49.814;8.652;2022-09-03T05:18:34;0.93;;;0.70;;
13279;SDS011;6708;49.814;8.652;2022-09-03T05:21:04;0.63;;;0.63;;
13279;SDS011;6708;49.814;8.652;2022-09-03T05:23:37;0.50;;;0.50;;
13279;SDS011;6708;49.814;8.652;2022-09-03T05:26:08;0.80;;;0.80;;
13279;SDS011;6708;49.814;8.652;2022-09-03T05:28:38;0.60;;;0.60;;
13279;SDS011;6708;49.814;8.652;2022-09-03T05:31:08;0.60;;;0.60;;
13279;SDS011;6708;49.814;8.652;2022-09-03T05:33:39;0.70;;;0.70;;
13279;SDS011;6708;49.814;8.652;2022-09-03T05:36:09;0.87;;;0.87;;
13279;SDS011;6708;49.814;8.652;2022-09-03T05:38:40;0.70;;;0.70;;
13279;SDS011;6708;49.814;8.652;2022-09-03T05:41:10;0.77;;;0.77;;
13279;SDS011;6708;49.814;8.652;2022-09-03T05:43:40;1.23;;;0.67;;
13279;SDS011;6708;49.814;8.652;2022-09-03T05:46:10;0.70;;;0.70;;
13279;SDS011;6708;49.814;8.652;2022-09-03T05:48:41;0.90;;;0.80;;
13279;SDS011;6708;49.814;8.652;2022-09-03T05:51:13;0.70;;;0.70;;
13279;SDS011;6708;49.814;8.652;2022-09-03T05:53:46;0.67;;;0.67;;
13279;SDS011;6708;49.814;8.652;2022-09-03T05:56:15;0.60;;;0.60;;
13279;SDS011;6708;49.814;8.652;2022-09-03T05:58:45;1.10;;;0.70;;
13279;SDS011;6708;49.814;8.652;2022-09-03T06:01:15;0.60;;;0.60;;
13279;SDS011;6708;49.814;8.652;2022-09-03T06:03:45;1.60;;;0.43;;
13279;SDS011;6708;49.814;8.652;2022-09-03T06:06:14;1.90;;;1.23;;
13279;SDS011;6708;49.814;8.652;2022-09-03T06:08:45;0.93;;;0.93;;
13279;SDS011;6708;49.814;8.652;2022-09-03T06:11:15;0.70;;;0.70;;
13279;SDS011;6708;49.814;8.652;2022-09-03T06:13:44;1.07;;;0.97;;
13279;SDS011;6708;49.814;8.652;2022-09-03T06:16:13;2.13;;;0.93;;
13279;SDS011;6708;49.814;8.652;2022-09-03T06:18:41;0.73;;;0.73;;
13279;SDS011;6708;49.814;8.652;2022-09-03T06:21:10;0.70;;;0.70;;
13279;SDS011;6708;49.814;8.652;2022-09-03T06:23:39;0.93;;;0.93;;
13279;SDS011;6708;49.814;8.652;2022-09-03T06:26:11;1.03;;;0.83;;
13279;SDS011;6708;49.814;8.652;2022-09-03T06:28:42;1.13;;;1.13;;
13279;SDS011;6708;49.814;8.652;2022-09-03T06:31:12;1.03;;;1.03;;
13279;SDS011;6708;49.814;8.652;2022-09-03T06:33:41;1.13;;;1.13;;
13279;SDS011;6708;49.814;8.652;2022-09-03T06:36:12;1.43;;;1.33;;
13279;SDS011;6708;49.814;8.652;2022-09-03T06:38:41;0.90;;;0.83;;
13279;SDS011;6708;49.814;8.652;2022-09-03T06:41:13;1.40;;;0.97;;
13279;SDS011;6708;49.814;8.652;2022-09-03T06:43:45;0.80;;;0.80;;
13279;SDS011;6708;49.814;8.652;2022-09-03T06:46:15;1.10;;;0.77;;
13279;SDS011;6708;49.814;8.652;2022-09-03T06:48:44;0.70;;;0.70;;
13279;SDS011;6708;49.814;8.652;2022-09-03T06:51:14;1.27;;;0.87;;
13279;SDS011;6708;49.814;8.652;2022-09-03T06:53:44;0.80;;;0.80;;
13279;SDS011;6708;49.814;8.652;2022-09-03T06:56:17;0.93;;;0.93;;
13279;SDS011;6708;49.814;8.652;2022-09-03T06:58:51;0.97;;;0.90;;
13279;SDS011;6708;49.814;8.652;2022-09-03T07:01:20;0.70;;;0.70;;
13279;SDS011;6708;49.814;8.652;2022-09-03T07:03:51;0.80;;;0.80;;
13279;SDS011;6708;49.814;8.652;2022-09-03T07:06:22;1.13;;;0.90;;
13279;SDS011;6708;49.814;8.652;2022-09-03T07:08:52;1.57;;;1.10;;
13279;SDS011;6708;49.814;8.652;2022-09-03T07:11:27;0.70;;;0.60;;
13279;SDS011;6708;49.814;8.652;2022-09-03T07:14:00;0.93;;;0.93;;
13279;SDS011;6708;49.814;8.652;2022-09-03T07:16:31;0.67;;;0.67;;
13279;SDS011;6708;49.814;8.652;2022-09-03T07:19:00;0.77;;;0.77;;
13279;SDS011;6708;49.814;8.652;2022-09-03T07:21:30;0.83;;;0.83;;
13279;SDS011;6708;49.814;8.652;2022-09-03T07:24:01;0.70;;;0.70;;
13279;SDS011;6708;49.814;8.652;2022-09-03T07:26:33;0.60;;;0.60;;
13279;SDS011;6708;49.814;8.652;2022-09-03T07:29:03;1.23;;;0.80;;
13279;SDS011;6708;49.814;8.652;2022-09-03T07:31:33;0.80;;;0.80;;
13279;SDS011;6708;49.814;8.652;2022-09-03T07:34:02;0.80;;;0.80;;
13279;SDS011;6708;49.814;8.652;2022-09-03T07:36:34;0.70;;;0.70;;
13279;SDS011;6708;49.814;8.652;2022-09-03T07:39:09;0.60;;;0.60;;
13279;SDS011;6708;49.814;8.652;2022-09-03T07:41:41;0.70;;;0.70;;
13279;SDS011;6708;49.814;8.652;2022-09-03T07:44:10;0.80;;;0.80;;
13279;SDS011;6708;49.814;8.652;2022-09-03T07:46:39;0.70;;;0.70;;
13279;SDS011;6708;49.814;8.652;2022-09-03T07:49:10;1.30;;;1.10;;
13279;SDS011;6708;49.814;8.652;2022-09-03T07:51:38;0.70;;;0.70;;
13279;SDS011;6708;49.814;8.652;2022-09-03T07:54:07;0.87;;;0.87;;
13279;SDS011;6708;49.814;8.652;2022-09-03T07:56:37;0.70;;;0.70;;
13279;SDS011;6708;49.814;8.652;2022-09-03T07:59:08;1.23;;;0.67;;
13279;SDS011;6708;49.814;8.652;2022-09-03T08:01:37;0.70;;;0.70;;
13279;SDS011;6708;49.814;8.652;2022-09-03T08:04:06;0.80;;;0.80;;
13279;SDS011;6708;49.814;8.652;2022-09-03T08:06:35;0.90;;;0.90;;
13279;SDS011;6708;49.814;8.652;2022-09-03T08:09:05;0.73;;;0.73;;
13279;SDS011;6708;49.814;8.652;2022-09-03T08:11:36;0.90;;;0.90;;
13279;SDS011;6708;49.814;8.652;2022-09-03T08:14:08;0.80;;;0.80;;
13279;SDS011;6708;49.814;8.652;2022-09-03T08:16:38;1.13;;;1.03;;
13279;SDS011;6708;49.814;8.652;2022-09-03T08:19:08;0.70;;;0.70;;
13279;SDS011;6708;49.814;8.652;2022-09-03T08:21:37;2.57;;;0.83;;
13279;SDS011;6708;49.814;8.652;2022-09-03T08:24:06;0.73;;;0.73;;
13279;SDS011;6708;49.814;8.652;2022-09-03T08:26:35;0.50;;;0.50;;
13279;SDS011;6708;49.814;8.652;2022-09-03T08:29:08;1.07;;;0.93;;
13279;SDS011;6708;49.814;8.652;2022-09-03T08:31:37;0.60;;;0.60;;
13279;SDS011;6708;49.814;8.652;2022-09-03T08:34:06;0.80;;;0.80;;
13279;SDS011;6708;49.814;8.652;2022-09-03T08:36:36;0.97;;;0.90;;
13279;SDS011;6708;49.814;8.652;2022-09-03T08:39:06;0.70;;;0.70;;
13279;SDS011;6708;49.814;8.652;2022-09-03T08:41:41;0.90;;;0.90;;
13279;SDS011;6708;49.814;8.652;2022-09-03T08:44:21;0.70;;;0.70;;
13279;SDS011;6708;49.814;8.652;2022-09-03T08:46:53;0.90;;;0.90;;
13279;SDS011;6708;49.814;8.652;2022-09-03T08:49:25;0.60;;;0.60;;
13279;SDS011;6708;49.814;8.652;2022-09-03T08:51:56;1.00;;;1.00;;
13279;SDS011;6708;49.814;8.652;2022-09-03T08:54:29;0.87;;;0.87;;
13279;SDS011;6708;49.814;8.652;2022-09-03T08:56:59;0.80;;;0.80;;
13279;SDS011;6708;49.814;8.652;2022-09-03T08:59:31;0.60;;;0.60;;
13279;SDS011;6708;49.814;8.652;2022-09-03T09:02:03;0.67;;;0.67;;
13279;SDS011;6708;49.814;8.652;2022-09-03T09:04:45;0.60;;;0.60;;
13279;SDS011;6708;49.814;8.652;2022-09-03T09:07:20;0.80;;;0.80;;
13279;SDS011;6708;49.814;8.652;2022-09-03T09:09:52;0.93;;;0.70;;
13279;SDS011;6708;49.814;8.652;2022-09-03T09:12:28;0.90;;;0.90;;
13279;SDS011;6708;49.814;8.652;2022-09-03T09:15:06;0.70;;;0.70;;
13279;SDS011;6708;49.814;8.652;2022-09-03T09:20:32;0.60;;;0.60;;
13279;SDS011;6708;49.814;8.652;2022-09-03T09:23:03;0.53;;;0.53;;
13279;SDS011;6708;49.814;8.652;2022-09-03T09:25:33;1.00;;;1.00;;
13279;SDS011;6708;49.814;8.652;2022-09-03T09:28:11;0.60;;;0.60;;
13279;SDS011;6708;49.814;8.652;2022-09-03T09:30:46;0.80;;;0.80;;
13279;SDS011;6708;49.814;8.652;2022-09-03T09:33:16;1.00;;;1.00;;
13279;SDS011;6708;49.814;8.652;2022-09-03T09:35:46;0.80;;;0.80;;
13279;SDS011;6708;49.814;8.652;2022-09-03T09:38:25;0.90;;;0.90;;
13279;SDS011;6708;49.814;8.652;2022-09-03T09:40:55;1.53;;;1.30;;
13279;SDS011;6708;49.814;8.652;2022-09-03T09:43:23;1.03;;;1.03;;
13279;SDS011;6708;49.814;8.652;2022-09-03T09:45:54;0.97;;;0.97;;
13279;SDS011;6708;49.814;8.652;2022-09-03T09:48:36;1.70;;;1.17;;
13279;SDS011;6708;49.814;8.652;2022-09-03T09:51:09;1.10;;;1.10;;
13279;SDS011;6708;49.814;8.652;2022-09-03T09:53:39;1.60;;;1.00;;
13279;SDS011;6708;49.814;8.652;2022-09-03T09:56:09;0.97;;;0.97;;
13279;SDS011;6708;49.814;8.652;2022-09-03T09:58:48;1.13;;;1.13;;
13279;SDS011;6708;49.814;8.652;2022-09-03T10:01:20;0.90;;;0.90;;
13279;SDS011;6708;49.814;8.652;2022-09-03T10:03:55;1.33;;;1.20;;
13279;SDS011;6708;49.814;8.652;2022-09-03T10:06:24;1.30;;;1.30;;
13279;SDS011;6708;49.814;8.652;2022-09-03T10:09:07;2.07;;;1.20;;
13279;SDS011;6708;49.814;8.652;2022-09-03T10:11:36;1.43;;;1.33;;
13279;SDS011;6708;49.814;8.652;2022-09-03T10:14:08;1.33;;;1.23;;
13279;SDS011;6708;49.814;8.652;2022-09-03T10:16:43;1.27;;;1.27;;
13279;SDS011;6708;49.814;8.652;2022-09-03T10:19:16;1.47;;;1.20;;
13279;SDS011;6708;49.814;8.652;2022-09-03T10:21:47;1.20;;;1.20;;
13279;SDS011;6708;49.814;8.652;2022-09-03T10:24:23;1.10;;;1.10;;
13279;SDS011;6708;49.814;8.652;2022-09-03T10:27:00;2.33;;;1.47;;
13279;SDS011;6708;49.814;8.652;2022-09-03T10:29:28;1.20;;;1.20;;
13279;SDS011;6708;49.814;8.652;2022-09-03T10:32:02;1.70;;;1.60;;
13279;SDS011;6708;49.814;8.652;2022-09-03T10:34:37;1.33;;;1.33;;
13279;SDS011;6708;49.814;8.652;2022-09-03T10:37:13;1.50;;;1.40;;
13279;SDS011;6708;49.814;8.652;2022-09-03T10:39:53;1.73;;;1.60;;
13279;SDS011;6708;49.814;8.652;2022-09-03T10:42:36;1.40;;;1.27;;
13279;SDS011;6708;49.814;8.652;2022-09-03T10:45:17;5.10;;;1.83;;
13279;SDS011;6708;49.814;8.652;2022-09-03T10:50:42;2.67;;;1.80;;
13279;SDS011;6708;49.814;8.652;2022-09-03T10:53:18;2.33;;;1.70;;
13279;SDS011;6708;49.814;8.652;2022-09-03T10:55:53;1.50;;;1.50;;
13279;SDS011;6708;49.814;8.652;2022-09-03T10:58:33;1.53;;;1.43;;
13279;SDS011;6708;49.814;8.652;2022-09-03T11:01:24;3.47;;;1.60;;
13279;SDS011;6708;49.814;8.652;2022-09-03T11:04:02;2.30;;;2.10;;
13279;SDS011;6708;49.814;8.652;2022-09-03T11:06:42;1.67;;;1.57;;
13279;SDS011;6708;49.814;8.652;2022-09-03T11:09:16;1.57;;;1.47;;
13279;SDS011;6708;49.814;8.652;2022-09-03T11:11:48;1.00;;;1.00;;
13279;SDS011;6708;49.814;8.652;2022-09-03T11:14:21;1.33;;;1.23;;
13279;SDS011;6708;49.814;8.652;2022-09-03T11:16:57;1.50;;;1.50;;
13279;SDS011;6708;49.814;8.652;2022-09-03T11:19:33;1.40;;;1.40;;
13279;SDS011;6708;49.814;8.652;2022-09-03T11:22:04;1.63;;;1.53;;
13279;SDS011;6708;49.814;8.652;2022-09-03T11:24:34;2.20;;;1.67;;
13279;SDS011;6708;49.814;8.652;2022-09-03T11:27:08;1.23;;;1.23;;
13279;SDS011;6708;49.814;8.652;2022-09-03T11:29:49;1.53;;;1.43;;
13279;SDS011;6708;49.814;8.652;2022-09-03T11:32:21;2.80;;;1.90;;
13279;SDS011;6708;49.814;8.652;2022-09-03T11:34:54;2.17;;;1.57;;
13279;SDS011;6708;49.814;8.652;2022-09-03T11:37:23;1.37;;;1.27;;
13279;SDS011;6708;49.814;8.652;2022-09-03T11:39:57;1.50;;;1.47;;
13279;SDS011;6708;49.814;8.652;2022-09-03T11:42:33;2.33;;;1.57;;
13279;SDS011;6708;49.814;8.652;2022-09-03T11:45:20;1.13;;;1.13;;
13279;SDS011;6708;49.814;8.652;2022-09-03T11:47:50;1.42;;;1.33;;
13279;SDS011;6708;49.814;8.652;2022-09-03T11:50:23;2.35;;;1.30;;
13279;SDS011;6708;49.814;8.652;2022-09-03T11:52:53;1.70;;;1.58;;
13279;SDS011;6708;49.814;8.652;2022-09-03T11:55:29;2.38;;;1.58;;
13279;SDS011;6708;49.814;8.652;2022-09-03T11:57:58;1.15;;;1.15;;
13279;SDS011;6708;49.814;8.652;2022-09-03T12:00:38;1.67;;;1.50;;
13279;SDS011;6708;49.814;8.652;2022-09-03T12:03:11;1.33;;;1.33;;
13279;SDS011;6708;49.814;8.652;2022-09-03T12:05:47;1.60;;;1.30;;
13279;SDS011;6708;49.814;8.652;2022-09-03T12:11:11;2.03;;;1.30;;
13279;SDS011;6708;49.814;8.652;2022-09-03T12:13:53;1.17;;;1.17;;
13279;SDS011;6708;49.814;8.652;2022-09-03T12:19:21;0.90;;;0.90;;
13279;SDS011;6708;49.814;8.652;2022-09-03T12:21:57;1.30;;;1.17;;
13279;SDS011;6708;49.814;8.652;2022-09-03T12:24:27;1.33;;;1.23;;
13279;SDS011;6708;49.814;8.652;2022-09-03T12:26:59;1.80;;;1.70;;
13279;SDS011;6708;49.814;8.652;2022-09-03T12:29:29;2.15;;;1.30;;
13279;SDS011;6708;49.814;8.652;2022-09-03T12:32:05;1.17;;;1.17;;
13279;SDS011;6708;49.814;8.652;2022-09-03T12:34:34;1.50;;;1.33;;
13279;SDS011;6708;49.814;8.652;2022-09-03T12:37:13;1.55;;;1.45;;
13279;SDS011;6708;49.814;8.652;2022-09-03T12:39:49;1.40;;;1.40;;
13279;SDS011;6708;49.814;8.652;2022-09-03T12:42:20;1.17;;;1.17;;
13279;SDS011;6708;49.814;8.652;2022-09-03T12:44:51;1.45;;;1.33;;
13279;SDS011;6708;49.814;8.652;2022-09-03T12:47:20;1.35;;;1.30;;
13279;SDS011;6708;49.814;8.652;2022-09-03T12:49:50;1.45;;;1.40;;
13279;SDS011;6708;49.814;8.652;2022-09-03T12:52:23;1.63;;;1.52;;
13279;SDS011;6708;49.814;8.652;2022-09-03T12:54:56;1.98;;;1.50;;
13279;SDS011;6708;49.814;8.652;2022-09-03T12:57:29;1.40;;;1.40;;
13279;SDS011;6708;49.814;8.652;2022-09-03T13:00:02;1.63;;;1.63;;
13279;SDS011;6708;49.814;8.652;2022-09-03T13:02:34;1.90;;;1.80;;
13279;SDS011;6708;49.814;8.652;2022-09-03T13:05:07;1.73;;;1.63;;
13279;SDS011;6708;49.814;8.652;2022-09-03T13:07:44;1.55;;;1.45;;
13279;SDS011;6708;49.814;8.652;2022-09-03T13:10:20;1.95;;;1.85;;
13279;SDS011;6708;49.814;8.652;2022-09-03T13:12:56;1.77;;;1.50;;
13279;SDS011;6708;49.814;8.652;2022-09-03T13:15:26;1.70;;;1.60;;
13279;SDS011;6708;49.814;8.652;2022-09-03T13:17:59;1.20;;;1.20;;
13279;SDS011;6708;49.814;8.652;2022-09-03T13:20:33;1.20;;;1.20;;
13279;SDS011;6708;49.814;8.652;2022-09-03T13:26:04;1.65;;;1.55;;
13279;SDS011;6708;49.814;8.652;2022-09-03T13:28:44;3.25;;;1.35;;
13279;SDS011;6708;49.814;8.652;2022-09-03T13:31:25;1.20;;;1.20;;
13279;SDS011;6708;49.814;8.652;2022-09-03T13:33:58;1.13;;;1.13;;
13279;SDS011;6708;49.814;8.652;2022-09-03T13:36:30;1.38;;;1.38;;
13279;SDS011;6708;49.814;8.652;2022-09-03T13:39:09;1.23;;;1.23;;
13279;SDS011;6708;49.814;8.652;2022-09-03T13:41:47;1.23;;;1.23;;
13279;SDS011;6708;49.814;8.652;2022-09-03T13:44:19;1.25;;;1.17;;
13279;SDS011;6708;49.814;8.652;2022-09-03T13:47:04;1.52;;;1.42;;
13279;SDS011;6708;49.814;8.652;2022-09-03T13:49:36;1.60;;;1.00;;
13279;SDS011;6708;49.814;8.652;2022-09-03T13:52:20;1.27;;;1.17;;
13279;SDS011;6708;49.814;8.652;2022-09-03T13:54:58;1.08;;;1.00;;
13279;SDS011;6708;49.814;8.652;2022-09-03T13:57:31;1.17;;;1.17;;
13279;SDS011;6708;49.814;8.652;2022-09-03T14:00:03;1.25;;;1.25;;
13279;SDS011;6708;49.814;8.652;2022-09-03T14:02:43;0.73;;;0.60;;
13279;SDS011;6708;49.814;8.652;2022-09-03T14:05:18;0.80;;;0.80;;
13279;SDS011;6708;49.814;8.652;2022-09-03T14:08:00;1.00;;;1.00;;
13279;SDS011;6708;49.814;8.652;2022-09-03T14:10:44;1.20;;;1.13;;
13279;SDS011;6708;49.814;8.652;2022-09-03T14:13:21;2.15;;;1.10;;
13279;SDS011;6708;49.814;8.652;2022-09-03T14:15:57;1.23;;;1.13;;
13279;SDS011;6708;49.814;8.652;2022-09-03T14:18:32;1.00;;;1.00;;
13279;SDS011;6708;49.814;8.652;2022-09-03T14:21:06;0.98;;;0.90;;
13279;SDS011;6708;49.814;8.652;2022-09-03T14:23:38;1.00;;;1.00;;
13279;SDS011;6708;49.814;8.652;2022-09-03T14:26:17;1.05;;;0.90;;
13279;SDS011;6708;49.814;8.652;2022-09-03T14:28:47;1.02;;;1.00;;
13279;SDS011;6708;49.814;8.652;2022-09-03T14:31:20;1.27;;;1.17;;
13279;SDS011;6708;49.814;8.652;2022-09-03T14:33:55;0.98;;;0.98;;
13279;SDS011;6708;49.814;8.652;2022-09-03T14:36:30;0.98;;;0.98;;
13279;SDS011;6708;49.814;8.652;2022-09-03T14:42:13;1.02;;;0.93;;
13279;SDS011;6708;49.814;8.652;2022-09-03T14:44:56;3.55;;;0.90;;
13279;SDS011;6708;49.814;8.652;2022-09-03T14:47:46;0.80;;;0.80;;
13279;SDS011;6708;49.814;8.652;2022-09-03T14:50:25;0.80;;;0.80;;
13279;SDS011;6708;49.814;8.652;2022-09-03T14:55:57;1.20;;;1.10;;
13279;SDS011;6708;49.814;8.652;2022-09-03T14:58:38;0.70;;;0.70;;
13279;SDS011;6708;49.814;8.652;2022-09-03T15:01:15;1.00;;;1.00;;
13279;SDS011;6708;49.814;8.652;2022-09-03T15:06:48;0.93;;;0.93;;
13279;SDS011;6708;49.814;8.652;2022-09-03T15:09:27;1.20;;;1.10;;
13279;SDS011;6708;49.814;8.652;2022-09-03T15:12:02;0.85;;;0.85;;
13279;SDS011;6708;49.814;8.652;2022-09-03T15:14:38;1.75;;;0.85;;
13279;SDS011;6708;49.814;8.652;2022-09-03T15:17:16;0.73;;;0.73;;
13279;SDS011;6708;49.814;8.652;2022-09-03T15:19:56;0.80;;;0.80;;
13279;SDS011;6708;49.814;8.652;2022-09-03T15:22:33;0.68;;;0.68;;
13279;SDS011;6708;49.814;8.652;2022-09-03T15:25:11;0.40;;;0.40;;
13279;SDS011;6708;49.814;8.652;2022-09-03T15:27:55;0.55;;;0.55;;
13279;SDS011;6708;49.814;8.652;2022-09-03T15:30:35;1.80;;;0.82;;
13279;SDS011;6708;49.814;8.652;2022-09-03T15:33:14;0.75;;;0.75;;
13279;SDS011;6708;49.814;8.652;2022-09-03T15:36:05;0.80;;;0.80;;
13279;SDS011;6708;49.814;8.652;2022-09-03T15:38:44;0.80;;;0.80;;
13279;SDS011;6708;49.814;8.652;2022-09-03T15:44:05;1.10;;;1.10;;
13279;SDS011;6708;49.814;8.652;2022-09-03T15:46:44;0.77;;;0.77;;
13279;SDS011;6708;49.814;8.652;2022-09-03T15:49:18;0.63;;;0.63;;
13279;SDS011;6708;49.814;8.652;2022-09-03T15:51:55;1.00;;;1.00;;
13279;SDS011;6708;49.814;8.652;2022-09-03T15:54:31;0.63;;;0.63;;
13279;SDS011;6708;49.814;8.652;2022-09-03T15:57:09;0.80;;;0.80;;
13279;SDS011;6708;49.814;8.652;2022-09-03T15:59:40;0.82;;;0.82;;
13279;SDS011;6708;49.814;8.652;2022-09-03T16:02:13;1.20;;;1.20;;